createdAt,value
2022-11-04T00:00:49.670Z,11.76
2022-11-04T00:03:16.261Z,11.73
2022-11-04T00:05:42.824Z,11.84
2022-11-04T00:08:24.693Z,11.79
2022-11-04T00:11:13.501Z,11.72
2022-11-04T00:13:40.210Z,11.69
2022-11-04T00:16:25.512Z,11.64
2022-11-04T00:18:52.013Z,11.65
2022-11-04T00:21:37.281Z,11.68
2022-11-04T00:24:22.777Z,11.73
2022-11-04T00:27:08.445Z,11.67
2022-11-04T00:29:35.099Z,11.68
2022-11-04T00:32:20.282Z,11.66
2022-11-04T00:34:46.841Z,11.61
2022-11-04T00:37:13.333Z,11.62
2022-11-04T00:39:39.898Z,11.57
2022-11-04T00:42:06.402Z,11.50
2022-11-04T00:44:32.938Z,11.51
2022-11-04T00:46:59.545Z,11.57
2022-11-04T00:49:26.036Z,11.59
2022-11-04T00:51:52.615Z,11.60
2022-11-04T00:54:19.147Z,11.54
2022-11-04T00:56:45.695Z,11.65
2022-11-04T00:59:14.504Z,11.74
2022-11-04T01:01:41.515Z,11.70
2022-11-04T01:04:09.269Z,11.85
2022-11-04T01:06:35.758Z,11.81
2022-11-04T01:09:03.771Z,11.81
2022-11-04T01:11:31.432Z,11.81
2022-11-04T01:13:58.071Z,11.82
2022-11-04T01:16:24.659Z,11.74
2022-11-04T01:18:51.365Z,11.69
2022-11-04T01:21:17.954Z,11.71
2022-11-04T01:23:44.894Z,11.80
2022-11-04T01:26:15.454Z,11.70
2022-11-04T01:28:42.094Z,11.64
2022-11-04T01:31:12.997Z,11.72
2022-11-04T01:33:39.672Z,11.70
2022-11-04T01:36:07.177Z,11.73
2022-11-04T01:38:33.838Z,11.79
2022-11-04T01:41:01.045Z,11.80
2022-11-04T01:43:44.128Z,11.74
2022-11-04T01:46:11.269Z,11.68
2022-11-04T01:48:37.831Z,11.63
2022-11-04T01:51:04.423Z,11.62
2022-11-04T01:53:32.332Z,11.64
2022-11-04T01:55:59.657Z,11.62
2022-11-04T01:58:26.884Z,11.51
2022-11-04T02:00:53.523Z,11.50
2022-11-04T02:03:39.111Z,11.54
2022-11-04T02:06:06.053Z,11.56
2022-11-04T02:08:32.567Z,11.53
2022-11-04T02:11:00.106Z,11.59
2022-11-04T02:13:26.966Z,11.53
2022-11-04T02:15:56.318Z,11.55
2022-11-04T02:18:25.961Z,11.51
2022-11-04T02:21:01.838Z,11.59
2022-11-04T02:23:28.337Z,11.42
2022-11-04T02:26:10.254Z,11.37
2022-11-04T02:28:39.655Z,11.45
2022-11-04T02:31:12.742Z,11.41
2022-11-04T02:33:45.402Z,11.41
2022-11-04T02:36:14.950Z,11.36
2022-11-04T02:39:00.424Z,11.16
2022-11-04T02:41:31.311Z,11.30
2022-11-04T02:43:57.793Z,11.39
2022-11-04T02:46:42.919Z,11.30
2022-11-04T02:49:11.229Z,11.12
2022-11-04T02:51:45.801Z,11.07
2022-11-04T02:54:21.696Z,11.23
2022-11-04T02:56:50.047Z,11.28
2022-11-04T02:59:39.965Z,11.30
2022-11-04T03:02:07.689Z,11.15
2022-11-04T03:04:36.362Z,11.08
2022-11-04T03:07:02.927Z,11.09
2022-11-04T03:09:29.584Z,11.09
2022-11-04T03:11:57.571Z,11.02
2022-11-04T03:14:25.180Z,11.00
2022-11-04T03:16:52.393Z,11.07
2022-11-04T03:19:26.496Z,11.08
2022-11-04T03:22:00.106Z,11.15
2022-11-04T03:24:26.671Z,11.19
2022-11-04T03:27:03.392Z,11.11
2022-11-04T03:30:02.427Z,11.05
2022-11-04T03:32:36.790Z,11.00
2022-11-04T03:35:03.550Z,10.93
2022-11-04T03:37:30.201Z,11.02
2022-11-04T03:39:56.765Z,10.95
2022-11-04T03:42:23.407Z,10.98
2022-11-04T03:44:50.815Z,10.91
2022-11-04T03:47:17.897Z,10.84
2022-11-04T03:49:51.447Z,10.79
2022-11-04T03:52:18.149Z,10.72
2022-11-04T03:54:44.830Z,10.79
2022-11-04T03:57:14.437Z,10.85
2022-11-04T03:59:56.022Z,10.90
2022-11-04T04:02:22.591Z,10.99
2022-11-04T04:04:49.172Z,11.10
2022-11-04T04:07:16.896Z,11.07
2022-11-04T04:10:03.657Z,10.98
2022-11-04T04:12:34.854Z,10.94
2022-11-04T04:15:07.726Z,11.01
2022-11-04T04:17:37.798Z,10.93
2022-11-04T04:20:23.632Z,10.75
2022-11-04T04:22:52.036Z,10.84
2022-11-04T04:25:37.394Z,10.88
2022-11-04T04:28:04.087Z,10.75
2022-11-04T04:30:30.678Z,10.68
2022-11-04T04:33:01.725Z,10.66
2022-11-04T04:35:44.502Z,10.80
2022-11-04T04:38:43.173Z,10.91
2022-11-04T04:41:37.349Z,10.96
2022-11-04T04:44:23.302Z,10.94
2022-11-04T04:46:50.010Z,10.92
2022-11-04T04:49:16.540Z,10.94
2022-11-04T04:51:43.821Z,10.90
2022-11-04T04:54:10.390Z,10.76
2022-11-04T04:56:36.883Z,10.69
2022-11-04T04:59:03.537Z,10.59
2022-11-04T05:01:30.267Z,10.45
2022-11-04T05:03:56.920Z,10.53
2022-11-04T05:06:23.465Z,10.65
2022-11-04T05:08:49.959Z,10.50
2022-11-04T05:11:16.522Z,10.43
2022-11-04T05:13:43.024Z,10.47
2022-11-04T05:16:10.259Z,10.44
2022-11-04T05:18:37.075Z,10.40
2022-11-04T05:21:04.810Z,10.33
2022-11-04T05:23:31.442Z,10.44
2022-11-04T05:25:58.771Z,10.45
2022-11-04T05:28:25.286Z,10.38
2022-11-04T05:30:51.774Z,10.30
2022-11-04T05:33:18.350Z,10.23
2022-11-04T05:35:45.010Z,10.22
2022-11-04T05:38:11.514Z,10.09
2022-11-04T05:40:38.079Z,10.12
2022-11-04T05:43:04.739Z,10.10
2022-11-04T05:45:31.354Z,10.12
2022-11-04T05:47:59.774Z,10.15
2022-11-04T05:50:26.403Z,10.28
2022-11-04T05:52:52.889Z,10.33
2022-11-04T05:55:19.446Z,10.41
2022-11-04T05:57:45.947Z,10.28
2022-11-04T06:00:12.835Z,10.41
2022-11-04T06:02:39.405Z,10.28
2022-11-04T06:05:06.522Z,10.28
2022-11-04T06:07:33.022Z,10.20
2022-11-04T06:10:00.409Z,10.25
2022-11-04T06:12:27.030Z,10.14
2022-11-04T06:14:53.643Z,10.07
2022-11-04T06:17:21.048Z,10.08
2022-11-04T06:19:47.817Z,10.09
2022-11-04T06:22:14.941Z,10.08
2022-11-04T06:24:44.746Z,10.07
2022-11-04T06:27:11.584Z,10.13
2022-11-04T06:29:41.821Z,10.07
2022-11-04T06:32:12.257Z,10.18
2022-11-04T06:34:38.978Z,10.29
2022-11-04T06:37:05.929Z,10.29
2022-11-04T06:39:32.529Z,10.28
2022-11-04T06:42:01.343Z,10.27
2022-11-04T06:44:31.778Z,10.28
2022-11-04T06:46:58.581Z,10.29
2022-11-04T06:49:25.157Z,10.27
2022-11-04T06:51:52.214Z,10.36
2022-11-04T06:54:18.853Z,10.48
2022-11-04T06:56:45.466Z,10.60
2022-11-04T06:59:15.891Z,10.63
2022-11-04T07:01:42.675Z,10.72
2022-11-04T07:04:09.647Z,10.64
2022-11-04T07:06:38.420Z,10.69
2022-11-04T07:09:07.803Z,10.81
2022-11-04T07:11:34.588Z,10.68
2022-11-04T07:14:01.558Z,10.72
2022-11-04T07:16:28.218Z,10.64
2022-11-04T07:18:55.212Z,10.79
2022-11-04T07:21:21.812Z,10.81
2022-11-04T07:23:48.339Z,10.80
2022-11-04T07:26:14.852Z,10.69
2022-11-04T07:28:41.596Z,10.65
2022-11-04T07:31:08.567Z,10.79
2022-11-04T07:33:35.430Z,10.65
2022-11-04T07:36:06.277Z,10.74
2022-11-04T07:38:35.341Z,10.66
2022-11-04T07:41:05.557Z,10.59
2022-11-04T07:43:32.226Z,10.62
2022-11-04T07:46:00.126Z,10.68
2022-11-04T07:48:26.782Z,10.72
2022-11-04T07:50:57.068Z,10.70
2022-11-04T07:53:23.666Z,10.82
2022-11-04T07:55:51.239Z,10.95
2022-11-04T07:58:19.187Z,11.10
2022-11-04T08:00:45.769Z,11.11
2022-11-04T08:03:13.029Z,11.14
2022-11-04T08:05:39.734Z,10.97
2022-11-04T08:08:07.887Z,11.09
2022-11-04T08:10:34.824Z,10.96
2022-11-04T08:13:01.462Z,11.24
2022-11-04T08:15:29.319Z,11.28
2022-11-04T08:17:55.816Z,11.52
2022-11-04T08:20:23.421Z,11.63
2022-11-04T08:22:53.189Z,11.65
2022-11-04T08:25:19.734Z,11.78
2022-11-04T08:27:46.318Z,11.82
2022-11-04T08:30:12.875Z,11.90
2022-11-04T08:32:39.671Z,12.13
2022-11-04T08:35:06.323Z,12.27
2022-11-04T08:37:33.030Z,12.32
2022-11-04T08:39:59.521Z,12.41
2022-11-04T08:42:26.397Z,12.36
2022-11-04T08:44:52.968Z,12.45
2022-11-04T08:47:19.563Z,12.32
2022-11-04T08:49:46.090Z,12.45
2022-11-04T08:52:12.734Z,12.34
2022-11-04T08:54:39.647Z,12.40
2022-11-04T08:57:06.151Z,12.43
2022-11-04T08:59:32.665Z,12.48
2022-11-04T09:01:59.294Z,12.52
2022-11-04T09:04:26.134Z,12.46
2022-11-04T09:06:52.872Z,12.39
2022-11-04T09:09:19.525Z,12.33
2022-11-04T09:11:46.129Z,12.18
2022-11-04T09:14:12.770Z,12.23
2022-11-04T09:16:40.307Z,12.24
2022-11-04T09:19:07.452Z,12.35
2022-11-04T09:21:33.993Z,12.30
2022-11-04T09:24:00.599Z,12.35
2022-11-04T09:26:27.197Z,12.48
2022-11-04T09:28:55.090Z,12.58
2022-11-04T09:31:21.904Z,12.48
2022-11-04T09:33:48.490Z,12.40
2022-11-04T09:36:14.993Z,12.45
2022-11-04T09:38:41.807Z,12.57
2022-11-04T09:41:09.598Z,12.47
2022-11-04T09:43:39.989Z,12.55
2022-11-04T09:46:08.925Z,12.58
2022-11-04T09:48:38.191Z,12.75
2022-11-04T09:51:06.580Z,12.87
2022-11-04T09:53:44.929Z,12.96
2022-11-04T09:56:21.515Z,12.96
2022-11-04T09:58:48.187Z,13.06
2022-11-04T10:01:19.047Z,12.92
2022-11-04T10:03:55.178Z,12.96
2022-11-04T10:06:30.807Z,12.85
2022-11-04T10:09:17.421Z,12.86
2022-11-04T10:11:44.055Z,12.85
2022-11-04T10:14:21.669Z,12.95
2022-11-04T10:16:48.179Z,13.00
2022-11-04T10:19:31.268Z,13.09
2022-11-04T10:22:04.199Z,13.09
2022-11-04T10:24:43.534Z,13.07
2022-11-04T10:27:14.339Z,13.00
2022-11-04T10:29:43.857Z,13.06
2022-11-04T10:32:21.046Z,13.20
2022-11-04T10:34:51.078Z,13.18
2022-11-04T10:37:18.119Z,13.30
2022-11-04T10:39:46.924Z,13.25
2022-11-04T10:42:15.073Z,13.28
2022-11-04T10:44:41.814Z,13.35
2022-11-04T10:47:08.344Z,13.45
2022-11-04T10:50:07.149Z,13.37
2022-11-04T10:52:37.857Z,13.38
2022-11-04T10:55:11.952Z,13.43
2022-11-04T10:57:38.524Z,13.51
2022-11-04T11:00:06.012Z,13.55
2022-11-04T11:02:47.920Z,13.61
2022-11-04T11:05:24.568Z,13.61
2022-11-04T11:07:52.494Z,13.59
2022-11-04T11:10:23.790Z,13.52
2022-11-04T11:12:52.843Z,13.64
2022-11-04T11:15:19.532Z,13.69
2022-11-04T11:17:47.075Z,13.79
2022-11-04T11:20:14.942Z,13.90
2022-11-04T11:22:42.929Z,13.95
2022-11-04T11:25:24.810Z,14.02
2022-11-04T11:27:58.093Z,14.01
2022-11-04T11:30:25.678Z,14.07
2022-11-04T11:32:59.447Z,14.01
2022-11-04T11:35:27.368Z,13.99
2022-11-04T11:37:53.936Z,13.87
2022-11-04T11:40:25.159Z,13.88
2022-11-04T11:42:52.199Z,13.92
2022-11-04T11:45:18.780Z,13.87
2022-11-04T11:47:46.949Z,13.71
2022-11-04T11:50:15.738Z,13.94
2022-11-04T11:52:42.728Z,14.03
2022-11-04T11:55:12.536Z,14.12
2022-11-04T12:00:40.259Z,14.21
2022-11-04T12:03:16.248Z,14.19
2022-11-04T12:11:20.909Z,13.92
2022-11-04T12:13:52.304Z,14.05
2022-11-04T12:16:27.391Z,13.92
2022-11-04T12:19:12.784Z,14.12
2022-11-04T12:21:41.079Z,14.02
2022-11-04T12:24:18.137Z,14.08
2022-11-04T12:26:50.771Z,14.08
2022-11-04T12:29:17.568Z,14.05
2022-11-04T12:32:10.595Z,13.93
2022-11-04T12:34:47.636Z,13.88
2022-11-04T12:37:23.292Z,13.85
2022-11-04T12:40:02.152Z,13.79
2022-11-04T12:42:49.047Z,13.81
2022-11-04T12:45:21.670Z,13.66
2022-11-04T12:47:48.216Z,13.60
2022-11-04T12:50:17.741Z,13.76
2022-11-04T12:52:44.470Z,13.79
2022-11-04T12:55:29.771Z,13.87
2022-11-04T12:58:03.733Z,13.97
2022-11-04T13:00:31.179Z,14.08
2022-11-04T13:03:02.383Z,14.05
2022-11-04T13:05:52.277Z,14.13
2022-11-04T13:08:23.262Z,14.18
2022-11-04T13:10:54.409Z,14.22
2022-11-04T13:13:32.773Z,14.05
2022-11-04T13:16:01.282Z,13.94
2022-11-04T13:18:28.911Z,13.99
2022-11-04T13:20:59.308Z,13.91
2022-11-04T13:23:36.829Z,13.88
2022-11-04T13:26:03.727Z,13.84
2022-11-04T13:28:30.235Z,13.84
2022-11-04T13:31:02.676Z,13.99
2022-11-04T13:33:38.356Z,13.94
2022-11-04T13:36:05.070Z,14.12
2022-11-04T13:38:35.961Z,14.07
2022-11-04T13:41:10.354Z,14.10
2022-11-04T13:43:38.353Z,14.04
2022-11-04T13:46:11.105Z,14.03
2022-11-04T13:48:50.327Z,13.87
2022-11-04T13:51:18.047Z,13.67
2022-11-04T13:53:47.850Z,13.70
2022-11-04T13:56:33.924Z,13.61
2022-11-04T13:59:19.506Z,13.57
2022-11-04T14:01:46.432Z,13.64
2022-11-04T14:04:12.991Z,13.86
2022-11-04T14:06:50.086Z,13.73
2022-11-04T14:09:28.960Z,13.80
2022-11-04T14:12:10.630Z,13.89
2022-11-04T14:14:37.438Z,13.72
2022-11-04T14:17:07.333Z,13.78
2022-11-04T14:19:47.210Z,13.82
2022-11-04T14:22:14.662Z,13.84
2022-11-04T14:24:41.210Z,13.75
2022-11-04T14:27:20.541Z,13.69
2022-11-04T14:29:50.786Z,13.67
2022-11-04T14:32:19.137Z,13.77
2022-11-04T14:34:45.664Z,13.70
2022-11-04T14:37:15.202Z,13.73
2022-11-04T14:39:41.881Z,13.24
2022-11-04T14:42:08.977Z,12.85
2022-11-04T14:44:41.757Z,12.68
2022-11-04T14:47:29.043Z,12.42
2022-11-04T14:49:58.682Z,12.28
2022-11-04T14:52:33.577Z,12.32
2022-11-04T14:55:13.893Z,12.37
2022-11-04T14:57:40.468Z,12.24
2022-11-04T15:00:34.368Z,12.22
2022-11-04T15:03:00.926Z,12.18
2022-11-04T15:05:28.475Z,12.27
2022-11-04T15:07:54.976Z,12.21
2022-11-04T15:10:24.789Z,12.34
2022-11-04T15:12:52.129Z,12.43
2022-11-04T15:15:32.827Z,12.52
2022-11-04T15:18:07.925Z,12.58
2022-11-04T15:20:36.187Z,12.55
2022-11-04T15:23:07.479Z,12.61
2022-11-04T15:25:41.561Z,12.61
2022-11-04T15:28:13.830Z,12.35
2022-11-04T15:30:41.050Z,12.41
2022-11-04T15:33:12.999Z,12.34
2022-11-04T15:35:43.566Z,12.26
2022-11-04T15:38:10.270Z,12.15
2022-11-04T15:40:37.224Z,12.11
2022-11-04T15:43:03.823Z,12.03
2022-11-04T15:45:30.449Z,12.09
2022-11-04T15:48:15.600Z,12.17
2022-11-04T15:50:43.105Z,12.22
2022-11-04T15:53:10.026Z,12.08
2022-11-04T15:55:36.840Z,12.03
2022-11-04T15:58:03.455Z,11.90
2022-11-04T16:00:30.531Z,11.82
2022-11-04T16:02:58.039Z,11.92
2022-11-04T16:05:24.633Z,11.79
2022-11-04T16:07:51.854Z,11.83
2022-11-04T16:10:23.968Z,11.74
2022-11-04T16:12:51.394Z,11.79
2022-11-04T16:15:31.445Z,11.70
2022-11-04T16:17:58.058Z,11.68
2022-11-04T16:20:24.679Z,11.63
2022-11-04T16:22:55.389Z,11.67
2022-11-04T16:25:22.412Z,11.67
2022-11-04T16:27:49.125Z,11.76
2022-11-04T16:30:17.477Z,11.72
2022-11-04T16:32:45.044Z,11.65
2022-11-04T16:35:14.211Z,11.60
2022-11-04T16:37:40.767Z,11.70
2022-11-04T16:40:07.965Z,11.66
2022-11-04T16:42:34.466Z,11.68
2022-11-04T16:45:01.872Z,11.71
2022-11-04T16:47:30.882Z,11.67
2022-11-04T16:50:01.345Z,11.78
2022-11-04T16:52:28.350Z,11.85
2022-11-04T16:54:57.903Z,11.87
2022-11-04T16:57:25.807Z,11.85
2022-11-04T16:59:54.693Z,11.83
2022-11-04T17:02:28.695Z,11.66
2022-11-04T17:04:55.819Z,11.76
2022-11-04T17:07:35.158Z,11.74
2022-11-04T17:10:14.582Z,11.77
2022-11-04T17:12:41.144Z,11.71
2022-11-04T17:15:08.128Z,11.48
2022-11-04T17:17:34.635Z,11.52
2022-11-04T17:20:01.158Z,11.65
2022-11-04T17:22:27.724Z,11.60
2022-11-04T17:24:54.312Z,11.46
2022-11-04T17:27:21.269Z,11.31
2022-11-04T17:29:47.904Z,11.17
2022-11-04T17:32:14.463Z,11.19
2022-11-04T17:34:41.029Z,11.23
2022-11-04T17:37:09.270Z,11.31
2022-11-04T17:39:35.846Z,11.36
2022-11-04T17:42:21.118Z,11.35
2022-11-04T17:44:47.784Z,11.43
2022-11-04T17:47:14.408Z,11.36
2022-11-04T17:49:41.571Z,11.45
2022-11-04T17:52:08.427Z,11.49
2022-11-04T17:54:35.420Z,11.45
2022-11-04T17:57:02.302Z,11.45
2022-11-04T17:59:32.531Z,11.43
2022-11-04T18:02:14.011Z,11.35
2022-11-04T18:04:45.079Z,11.22
2022-11-04T18:07:18.078Z,11.35
2022-11-04T18:09:57.218Z,11.34
2022-11-04T18:12:44.437Z,11.17
2022-11-04T18:15:11.885Z,11.12
2022-11-04T18:17:42.363Z,11.19
2022-11-04T18:20:13.835Z,11.14
2022-11-04T18:22:44.832Z,11.08
2022-11-04T18:25:12.982Z,11.04
2022-11-04T18:27:39.728Z,11.08
2022-11-04T18:30:06.637Z,11.10
2022-11-04T18:32:33.280Z,11.00
2022-11-04T18:34:59.799Z,11.19
2022-11-04T18:37:26.393Z,11.19
2022-11-04T18:39:52.976Z,11.11
2022-11-04T18:42:19.530Z,11.16
2022-11-04T18:44:46.341Z,11.24
2022-11-04T18:47:14.099Z,11.18
2022-11-04T18:49:40.917Z,11.07
2022-11-04T18:52:07.570Z,11.24
2022-11-04T18:54:34.351Z,11.17
2022-11-04T18:57:01.182Z,11.32
2022-11-04T18:59:27.953Z,11.36
2022-11-04T19:01:54.674Z,11.26
2022-11-04T19:04:26.416Z,11.28
2022-11-04T19:07:08.736Z,11.31
2022-11-04T19:09:47.412Z,11.26
2022-11-04T19:12:33.433Z,11.26
2022-11-04T19:15:02.381Z,11.16
2022-11-04T19:17:31.890Z,11.15
2022-11-04T19:19:58.636Z,11.11
2022-11-04T19:22:25.329Z,11.10
2022-11-04T19:24:53.004Z,11.06
2022-11-04T19:27:21.652Z,11.06
2022-11-04T19:29:50.921Z,11.16
2022-11-04T19:32:18.731Z,11.27
2022-11-04T19:34:45.556Z,11.20
2022-11-04T19:37:13.043Z,11.24
2022-11-04T19:39:48.836Z,11.33
2022-11-04T19:42:34.319Z,11.38
2022-11-04T19:45:05.232Z,11.26
2022-11-04T19:47:36.233Z,11.34
2022-11-04T19:50:07.703Z,11.25
2022-11-04T19:52:34.487Z,11.17
2022-11-04T19:55:01.490Z,11.12
2022-11-04T19:57:28.644Z,11.17
2022-11-04T19:59:55.439Z,11.24
2022-11-04T20:02:25.077Z,11.17
2022-11-04T20:04:54.428Z,11.05
2022-11-04T20:07:25.778Z,11.00
2022-11-04T20:09:55.049Z,10.99
2022-11-04T20:12:40.827Z,11.08
2022-11-04T20:15:10.654Z,11.08
2022-11-04T20:17:37.350Z,11.15
2022-11-04T20:20:08.327Z,11.16
2022-11-04T20:22:38.212Z,11.14
2022-11-04T20:25:10.942Z,11.06
2022-11-04T20:27:46.120Z,11.13
2022-11-04T20:30:13.789Z,11.01
2022-11-04T20:32:40.759Z,10.97
2022-11-04T20:35:11.733Z,10.87
2022-11-04T20:37:38.799Z,10.81
2022-11-04T20:40:06.375Z,10.79
2022-11-04T20:42:33.669Z,10.86
2022-11-04T20:45:09.411Z,10.95
2022-11-04T20:47:39.967Z,11.08
2022-11-04T20:50:10.635Z,11.18
2022-11-04T20:52:45.669Z,11.22
2022-11-04T20:55:16.372Z,11.26
2022-11-04T20:57:45.378Z,11.05
2022-11-04T21:00:16.438Z,11.12
2022-11-04T21:02:49.621Z,11.02
2022-11-04T21:05:23.351Z,11.11
2022-11-04T21:07:50.879Z,11.11
2022-11-04T21:10:18.560Z,10.97
2022-11-04T21:12:48.831Z,11.05
2022-11-04T21:15:43.525Z,11.16
2022-11-04T21:18:16.697Z,11.26
2022-11-04T21:20:43.599Z,11.14
2022-11-04T21:23:10.912Z,11.11
2022-11-04T21:25:40.008Z,11.05
2022-11-04T21:28:06.687Z,11.05
2022-11-04T21:30:34.168Z,11.17
2022-11-04T21:33:00.765Z,11.10
2022-11-04T21:35:27.401Z,11.09
2022-11-04T21:37:53.957Z,11.06
2022-11-04T21:40:20.522Z,11.00
2022-11-04T21:42:47.027Z,10.94
2022-11-04T21:45:14.050Z,11.22
2022-11-04T21:47:40.653Z,11.34
2022-11-04T21:50:07.571Z,11.36
2022-11-04T21:52:34.120Z,11.26
2022-11-04T21:55:00.693Z,11.37
2022-11-04T21:57:27.210Z,11.36
2022-11-04T21:59:53.856Z,11.43
2022-11-04T22:02:20.467Z,11.42
2022-11-04T22:04:47.037Z,11.43
2022-11-04T22:07:13.574Z,11.41
2022-11-04T22:09:40.149Z,11.40
2022-11-04T22:12:06.701Z,11.43
2022-11-04T22:14:33.275Z,11.40
2022-11-04T22:17:00.361Z,11.36
2022-11-04T22:19:27.010Z,11.43
2022-11-04T22:21:53.813Z,11.41
2022-11-04T22:24:20.337Z,11.40
2022-11-04T22:26:47.978Z,11.28
2022-11-04T22:29:15.025Z,11.28
2022-11-04T22:31:41.841Z,11.22
2022-11-04T22:34:08.572Z,11.23
2022-11-04T22:36:35.570Z,11.28
2022-11-04T22:39:03.685Z,11.20
2022-11-04T22:41:31.190Z,11.37
2022-11-04T22:43:58.032Z,11.33
2022-11-04T22:46:26.049Z,11.44
2022-11-04T22:48:53.077Z,11.32
2022-11-04T22:51:19.723Z,11.32
2022-11-04T22:53:50.064Z,11.30
2022-11-04T22:56:19.311Z,11.22
2022-11-04T22:58:46.281Z,11.26
2022-11-04T23:01:13.773Z,11.28
2022-11-04T23:03:40.712Z,11.23
2022-11-04T23:06:07.750Z,11.32
2022-11-04T23:08:34.912Z,11.48
2022-11-04T23:11:22.691Z,11.52
2022-11-04T23:14:18.766Z,11.56
2022-11-04T23:17:05.520Z,11.58
2022-11-04T23:19:32.107Z,11.63
2022-11-04T23:22:17.371Z,11.55
2022-11-04T23:25:02.806Z,11.27
2022-11-04T23:27:48.105Z,11.34
2022-11-04T23:30:26.962Z,11.31
2022-11-04T23:33:06.426Z,11.39
2022-11-04T23:35:53.058Z,11.49
2022-11-04T23:38:20.200Z,11.56
2022-11-04T23:41:07.725Z,11.41
2022-11-04T23:43:34.734Z,11.50
2022-11-04T23:46:20.122Z,11.50
2022-11-04T23:49:05.453Z,11.35
2022-11-04T23:51:51.256Z,11.37
2022-11-04T23:54:36.551Z,11.13
2022-11-04T23:57:21.908Z,11.33
